sensor_id;sensor_type;location;lat;lon;timestamp;pressure;altitude;pressure_sealevel;temperature;humidity
61436;BME280;47304;47.456;19.160;2024-01-15T00:00:32;99122.14;;;-1.40;72.43
61436;BME280;47304;47.456;19.160;2024-01-15T00:03:01;99115.59;;;-1.41;72.58
61436;BME280;47304;47.456;19.160;2024-01-15T00:05:29;99106.10;;;-1.42;72.52
61436;BME280;47304;47.456;19.160;2024-01-15T00:07:57;99095.06;;;-1.44;72.61
61436;BME280;47304;47.456;19.160;2024-01-15T00:10:26;99092.30;;;-1.45;72.67
61436;BME280;47304;47.456;19.160;2024-01-15T00:12:54;99086.94;;;-1.46;72.63
61436;BME280;47304;47.456;19.160;2024-01-15T00:15:22;99079.74;;;-1.45;72.83
61436;BME280;47304;47.456;19.160;2024-01-15T00:17:51;99068.40;;;-1.45;72.85
61436;BME280;47304;47.456;19.160;2024-01-15T00:20:19;99064.27;;;-1.46;72.78
61436;BME280;47304;47.456;19.160;2024-01-15T00:22:48;99056.77;;;-1.50;72.87
61436;BME280;47304;47.456;19.160;2024-01-15T00:25:17;99050.44;;;-1.49;73.01
61436;BME280;47304;47.456;19.160;2024-01-15T00:27:46;99048.77;;;-1.47;73.03
61436;BME280;47304;47.456;19.160;2024-01-15T00:30:15;99046.83;;;-1.43;73.10
61436;BME280;47304;47.456;19.160;2024-01-15T00:32:43;99041.97;;;-1.38;73.16
61436;BME280;47304;47.456;19.160;2024-01-15T00:35:11;99032.30;;;-1.33;73.14
61436;BME280;47304;47.456;19.160;2024-01-15T00:37:40;99028.62;;;-1.29;73.04
61436;BME280;47304;47.456;19.160;2024-01-15T00:40:09;99030.91;;;-1.27;73.04
61436;BME280;47304;47.456;19.160;2024-01-15T00:42:37;99033.41;;;-1.23;73.00
61436;BME280;47304;47.456;19.160;2024-01-15T00:45:06;99029.84;;;-1.21;72.92
61436;BME280;47304;47.456;19.160;2024-01-15T00:47:34;99031.94;;;-1.20;72.85
61436;BME280;47304;47.456;19.160;2024-01-15T00:50:03;99038.85;;;-1.19;72.76
61436;BME280;47304;47.456;19.160;2024-01-15T00:52:31;99037.48;;;-1.19;72.67
61436;BME280;47304;47.456;19.160;2024-01-15T00:54:59;99042.97;;;-1.19;72.55
61436;BME280;47304;47.456;19.160;2024-01-15T00:57:28;99036.77;;;-1.19;72.59
61436;BME280;47304;47.456;19.160;2024-01-15T00:59:56;99024.25;;;-1.18;72.61
61436;BME280;47304;47.456;19.160;2024-01-15T01:02:24;99020.03;;;-1.16;72.62
61436;BME280;47304;47.456;19.160;2024-01-15T01:04:52;99018.36;;;-1.13;72.64
61436;BME280;47304;47.456;19.160;2024-01-15T01:07:21;99014.66;;;-1.10;72.59
61436;BME280;47304;47.456;19.160;2024-01-15T01:09:49;99019.88;;;-1.07;72.57
61436;BME280;47304;47.456;19.160;2024-01-15T01:12:17;99011.46;;;-1.07;72.48
61436;BME280;47304;47.456;19.160;2024-01-15T01:14:45;99005.92;;;-1.09;72.38
61436;BME280;47304;47.456;19.160;2024-01-15T01:17:13;99005.59;;;-1.09;72.31
61436;BME280;47304;47.456;19.160;2024-01-15T01:19:42;99000.73;;;-1.11;72.30
61436;BME280;47304;47.456;19.160;2024-01-15T01:22:10;98996.72;;;-1.13;72.27
61436;BME280;47304;47.456;19.160;2024-01-15T01:24:39;98994.94;;;-1.15;72.33
61436;BME280;47304;47.456;19.160;2024-01-15T01:27:07;98984.73;;;-1.18;72.28
61436;BME280;47304;47.456;19.160;2024-01-15T01:29:35;98981.59;;;-1.20;72.36
61436;BME280;47304;47.456;19.160;2024-01-15T01:32:03;98981.36;;;-1.22;72.43
61436;BME280;47304;47.456;19.160;2024-01-15T01:34:39;98978.92;;;-1.23;72.45
61436;BME280;47304;47.456;19.160;2024-01-15T01:37:08;98972.58;;;-1.23;72.47
61436;BME280;47304;47.456;19.160;2024-01-15T01:39:36;98978.73;;;-1.24;72.56
61436;BME280;47304;47.456;19.160;2024-01-15T01:42:05;98974.93;;;-1.26;72.53
61436;BME280;47304;47.456;19.160;2024-01-15T01:44:33;98975.57;;;-1.27;72.57
61436;BME280;47304;47.456;19.160;2024-01-15T01:47:01;98969.55;;;-1.28;72.61
61436;BME280;47304;47.456;19.160;2024-01-15T01:49:30;98967.14;;;-1.28;72.64
61436;BME280;47304;47.456;19.160;2024-01-15T01:51:59;98960.75;;;-1.29;72.71
61436;BME280;47304;47.456;19.160;2024-01-15T01:54:31;98951.09;;;-1.31;72.65
61436;BME280;47304;47.456;19.160;2024-01-15T01:57:00;98947.75;;;-1.34;72.55
61436;BME280;47304;47.456;19.160;2024-01-15T01:59:32;98947.45;;;-1.39;72.51
61436;BME280;47304;47.456;19.160;2024-01-15T02:02:01;98945.77;;;-1.44;72.56
61436;BME280;47304;47.456;19.160;2024-01-15T02:04:31;98936.70;;;-1.50;72.66
61436;BME280;47304;47.456;19.160;2024-01-15T02:07:00;98925.63;;;-1.53;72.78
61436;BME280;47304;47.456;19.160;2024-01-15T02:09:28;98924.85;;;-1.57;72.76
61436;BME280;47304;47.456;19.160;2024-01-15T02:11:57;98917.39;;;-1.60;72.80
61436;BME280;47304;47.456;19.160;2024-01-15T02:14:25;98918.97;;;-1.65;72.90
61436;BME280;47304;47.456;19.160;2024-01-15T02:16:53;98914.38;;;-1.71;72.97
61436;BME280;47304;47.456;19.160;2024-01-15T02:19:21;98900.16;;;-1.76;73.15
61436;BME280;47304;47.456;19.160;2024-01-15T02:21:49;98898.36;;;-1.79;73.24
61436;BME280;47304;47.456;19.160;2024-01-15T02:24:17;98905.47;;;-1.83;73.32
61436;BME280;47304;47.456;19.160;2024-01-15T02:26:46;98909.98;;;-1.88;73.34
61436;BME280;47304;47.456;19.160;2024-01-15T02:29:15;98923.55;;;-1.94;73.46
61436;BME280;47304;47.456;19.160;2024-01-15T02:31:43;98915.14;;;-2.01;73.43
61436;BME280;47304;47.456;19.160;2024-01-15T02:34:12;98918.09;;;-2.06;73.63
61436;BME280;47304;47.456;19.160;2024-01-15T02:36:40;98911.31;;;-2.09;73.70
61436;BME280;47304;47.456;19.160;2024-01-15T02:39:08;98904.52;;;-2.12;73.55
61436;BME280;47304;47.456;19.160;2024-01-15T02:41:36;98902.55;;;-2.16;73.63
61436;BME280;47304;47.456;19.160;2024-01-15T02:44:05;98898.32;;;-2.20;73.78
61436;BME280;47304;47.456;19.160;2024-01-15T02:46:33;98899.39;;;-2.25;73.81
61436;BME280;47304;47.456;19.160;2024-01-15T02:49:02;98891.34;;;-2.31;74.10
61436;BME280;47304;47.456;19.160;2024-01-15T02:51:30;98887.12;;;-2.35;74.17
61436;BME280;47304;47.456;19.160;2024-01-15T02:53:58;98886.02;;;-2.38;74.41
61436;BME280;47304;47.456;19.160;2024-01-15T02:56:27;98881.14;;;-2.40;74.20
61436;BME280;47304;47.456;19.160;2024-01-15T02:58:55;98876.35;;;-2.46;73.96
61436;BME280;47304;47.456;19.160;2024-01-15T03:01:23;98888.60;;;-2.50;73.99
61436;BME280;47304;47.456;19.160;2024-01-15T03:03:51;98901.16;;;-2.54;74.07
61436;BME280;47304;47.456;19.160;2024-01-15T03:06:20;98890.70;;;-2.60;74.05
61436;BME280;47304;47.456;19.160;2024-01-15T03:08:48;98878.41;;;-2.64;74.24
61436;BME280;47304;47.456;19.160;2024-01-15T03:11:16;98863.30;;;-2.65;74.45
61436;BME280;47304;47.456;19.160;2024-01-15T03:13:44;98865.84;;;-2.66;74.41
61436;BME280;47304;47.456;19.160;2024-01-15T03:16:12;98857.05;;;-2.69;74.30
61436;BME280;47304;47.456;19.160;2024-01-15T03:18:41;98852.13;;;-2.72;74.21
61436;BME280;47304;47.456;19.160;2024-01-15T03:21:09;98848.96;;;-2.75;73.95
61436;BME280;47304;47.456;19.160;2024-01-15T03:23:37;98847.78;;;-2.80;73.88
61436;BME280;47304;47.456;19.160;2024-01-15T03:26:05;98851.20;;;-2.87;73.77
61436;BME280;47304;47.456;19.160;2024-01-15T03:28:33;98848.27;;;-2.93;73.88
61436;BME280;47304;47.456;19.160;2024-01-15T03:31:02;98852.61;;;-2.97;74.22
61436;BME280;47304;47.456;19.160;2024-01-15T03:33:30;98845.20;;;-2.99;74.48
61436;BME280;47304;47.456;19.160;2024-01-15T03:35:58;98848.02;;;-3.02;74.18
61436;BME280;47304;47.456;19.160;2024-01-15T03:38:28;98848.26;;;-3.05;74.12
61436;BME280;47304;47.456;19.160;2024-01-15T03:40:56;98846.08;;;-3.10;74.09
61436;BME280;47304;47.456;19.160;2024-01-15T03:43:25;98844.09;;;-3.14;74.49
61436;BME280;47304;47.456;19.160;2024-01-15T03:45:54;98848.70;;;-3.14;74.65
61436;BME280;47304;47.456;19.160;2024-01-15T03:48:22;98856.75;;;-3.14;74.83
61436;BME280;47304;47.456;19.160;2024-01-15T03:50:50;98872.11;;;-3.16;74.85
61436;BME280;47304;47.456;19.160;2024-01-15T03:53:18;98863.67;;;-3.17;75.04
61436;BME280;47304;47.456;19.160;2024-01-15T03:55:46;98852.84;;;-3.19;75.09
61436;BME280;47304;47.456;19.160;2024-01-15T03:58:15;98871.36;;;-3.18;75.17
61436;BME280;47304;47.456;19.160;2024-01-15T04:00:43;98873.19;;;-3.19;75.27
61436;BME280;47304;47.456;19.160;2024-01-15T04:03:12;98871.10;;;-3.21;75.23
61436;BME280;47304;47.456;19.160;2024-01-15T04:05:40;98866.80;;;-3.22;75.36
61436;BME280;47304;47.456;19.160;2024-01-15T04:08:09;98854.83;;;-3.21;75.45
61436;BME280;47304;47.456;19.160;2024-01-15T04:10:37;98858.61;;;-3.20;75.37
61436;BME280;47304;47.456;19.160;2024-01-15T04:13:06;98867.96;;;-3.23;75.36
61436;BME280;47304;47.456;19.160;2024-01-15T04:15:34;98862.73;;;-3.25;75.37
61436;BME280;47304;47.456;19.160;2024-01-15T04:18:03;98854.56;;;-3.30;75.48
61436;BME280;47304;47.456;19.160;2024-01-15T04:20:32;98847.89;;;-3.29;75.59
61436;BME280;47304;47.456;19.160;2024-01-15T04:23:00;98840.48;;;-3.31;75.32
61436;BME280;47304;47.456;19.160;2024-01-15T04:25:28;98819.85;;;-3.34;75.33
61436;BME280;47304;47.456;19.160;2024-01-15T04:27:57;98826.98;;;-3.35;75.22
61436;BME280;47304;47.456;19.160;2024-01-15T04:30:25;98816.92;;;-3.39;75.17
61436;BME280;47304;47.456;19.160;2024-01-15T04:32:53;98813.04;;;-3.44;75.04
61436;BME280;47304;47.456;19.160;2024-01-15T04:35:21;98818.07;;;-3.47;75.11
61436;BME280;47304;47.456;19.160;2024-01-15T04:37:49;98818.36;;;-3.48;75.39
61436;BME280;47304;47.456;19.160;2024-01-15T04:40:18;98812.14;;;-3.50;75.36
61436;BME280;47304;47.456;19.160;2024-01-15T04:42:46;98806.08;;;-3.53;75.24
61436;BME280;47304;47.456;19.160;2024-01-15T04:45:14;98810.98;;;-3.54;75.31
61436;BME280;47304;47.456;19.160;2024-01-15T04:47:43;98806.59;;;-3.59;75.22
61436;BME280;47304;47.456;19.160;2024-01-15T04:50:11;98810.67;;;-3.59;75.44
61436;BME280;47304;47.456;19.160;2024-01-15T04:52:39;98812.52;;;-3.60;75.31
61436;BME280;47304;47.456;19.160;2024-01-15T04:55:08;98814.09;;;-3.65;75.12
61436;BME280;47304;47.456;19.160;2024-01-15T04:57:36;98819.73;;;-3.71;75.09
61436;BME280;47304;47.456;19.160;2024-01-15T05:00:05;98827.84;;;-3.74;75.21
61436;BME280;47304;47.456;19.160;2024-01-15T05:02:34;98826.33;;;-3.79;75.09
61436;BME280;47304;47.456;19.160;2024-01-15T05:05:02;98819.61;;;-3.85;75.16
61436;BME280;47304;47.456;19.160;2024-01-15T05:07:31;98827.14;;;-3.90;75.21
61436;BME280;47304;47.456;19.160;2024-01-15T05:09:59;98825.36;;;-3.93;75.38
61436;BME280;47304;47.456;19.160;2024-01-15T05:12:27;98835.20;;;-3.95;75.66
61436;BME280;47304;47.456;19.160;2024-01-15T05:14:55;98825.31;;;-4.00;75.84
61436;BME280;47304;47.456;19.160;2024-01-15T05:17:23;98839.09;;;-4.02;76.13
61436;BME280;47304;47.456;19.160;2024-01-15T05:19:52;98839.59;;;-4.03;76.64
61436;BME280;47304;47.456;19.160;2024-01-15T05:22:20;98841.26;;;-4.04;76.50
61436;BME280;47304;47.456;19.160;2024-01-15T05:24:48;98836.73;;;-4.06;76.50
61436;BME280;47304;47.456;19.160;2024-01-15T05:27:16;98842.07;;;-4.05;76.93
61436;BME280;47304;47.456;19.160;2024-01-15T05:29:46;98844.66;;;-4.04;77.19
61436;BME280;47304;47.456;19.160;2024-01-15T05:32:14;98842.05;;;-4.01;77.17
61436;BME280;47304;47.456;19.160;2024-01-15T05:34:42;98839.84;;;-4.00;77.00
61436;BME280;47304;47.456;19.160;2024-01-15T05:37:11;98842.97;;;-3.98;76.90
61436;BME280;47304;47.456;19.160;2024-01-15T05:39:39;98851.19;;;-3.99;76.62
61436;BME280;47304;47.456;19.160;2024-01-15T05:42:07;98848.73;;;-4.00;76.67
61436;BME280;47304;47.456;19.160;2024-01-15T05:44:35;98845.94;;;-4.02;76.46
61436;BME280;47304;47.456;19.160;2024-01-15T05:47:04;98840.09;;;-4.03;76.59
61436;BME280;47304;47.456;19.160;2024-01-15T05:49:32;98843.52;;;-4.03;76.91
61436;BME280;47304;47.456;19.160;2024-01-15T05:52:00;98843.21;;;-4.01;76.92
61436;BME280;47304;47.456;19.160;2024-01-15T05:54:28;98845.92;;;-4.02;76.81
61436;BME280;47304;47.456;19.160;2024-01-15T05:56:57;98844.91;;;-4.02;76.67
61436;BME280;47304;47.456;19.160;2024-01-15T05:59:25;98848.34;;;-4.02;76.60
61436;BME280;47304;47.456;19.160;2024-01-15T06:01:54;98845.50;;;-4.00;76.52
61436;BME280;47304;47.456;19.160;2024-01-15T06:04:22;98842.28;;;-3.99;76.32
61436;BME280;47304;47.456;19.160;2024-01-15T06:06:50;98844.86;;;-3.98;76.28
61436;BME280;47304;47.456;19.160;2024-01-15T06:09:19;98847.12;;;-3.97;76.16
61436;BME280;47304;47.456;19.160;2024-01-15T06:11:47;98841.11;;;-3.98;76.06
61436;BME280;47304;47.456;19.160;2024-01-15T06:14:15;98835.27;;;-3.99;75.92
61436;BME280;47304;47.456;19.160;2024-01-15T06:16:43;98834.02;;;-4.00;75.90
61436;BME280;47304;47.456;19.160;2024-01-15T06:19:12;98831.60;;;-4.01;76.06
61436;BME280;47304;47.456;19.160;2024-01-15T06:21:40;98836.61;;;-3.99;76.44
61436;BME280;47304;47.456;19.160;2024-01-15T06:24:09;98837.05;;;-3.97;76.64
61436;BME280;47304;47.456;19.160;2024-01-15T06:26:37;98837.30;;;-3.94;76.71
61436;BME280;47304;47.456;19.160;2024-01-15T06:29:05;98838.59;;;-3.91;76.69
61436;BME280;47304;47.456;19.160;2024-01-15T06:31:33;98833.73;;;-3.88;76.87
61436;BME280;47304;47.456;19.160;2024-01-15T06:34:01;98831.16;;;-3.83;77.40
61436;BME280;47304;47.456;19.160;2024-01-15T06:36:30;98828.43;;;-3.77;77.68
61436;BME280;47304;47.456;19.160;2024-01-15T06:38:58;98840.58;;;-3.72;77.87
61436;BME280;47304;47.456;19.160;2024-01-15T06:41:26;98836.16;;;-3.65;78.00
61436;BME280;47304;47.456;19.160;2024-01-15T06:43:54;98838.50;;;-3.62;78.01
61436;BME280;47304;47.456;19.160;2024-01-15T06:46:23;98841.10;;;-3.55;78.07
61436;BME280;47304;47.456;19.160;2024-01-15T06:48:51;98847.16;;;-3.53;77.91
61436;BME280;47304;47.456;19.160;2024-01-15T06:51:19;98851.73;;;-3.49;78.05
61436;BME280;47304;47.456;19.160;2024-01-15T06:53:47;98848.96;;;-3.44;78.13
61436;BME280;47304;47.456;19.160;2024-01-15T06:56:16;98854.30;;;-3.38;78.22
61436;BME280;47304;47.456;19.160;2024-01-15T06:58:44;98848.77;;;-3.39;78.03
61436;BME280;47304;47.456;19.160;2024-01-15T07:01:12;98848.48;;;-3.38;78.27
61436;BME280;47304;47.456;19.160;2024-01-15T07:03:40;98851.29;;;-3.36;78.30
61436;BME280;47304;47.456;19.160;2024-01-15T07:06:08;98853.66;;;-3.32;78.41
61436;BME280;47304;47.456;19.160;2024-01-15T07:08:37;98856.02;;;-3.27;78.38
61436;BME280;47304;47.456;19.160;2024-01-15T07:11:06;98858.54;;;-3.23;78.28
61436;BME280;47304;47.456;19.160;2024-01-15T07:13:35;98856.34;;;-3.16;78.22
61436;BME280;47304;47.456;19.160;2024-01-15T07:16:04;98853.08;;;-3.11;78.21
61436;BME280;47304;47.456;19.160;2024-01-15T07:18:32;98859.08;;;-3.05;78.26
61436;BME280;47304;47.456;19.160;2024-01-15T07:21:00;98858.02;;;-3.00;78.08
61436;BME280;47304;47.456;19.160;2024-01-15T07:23:28;98861.14;;;-2.99;78.04
61436;BME280;47304;47.456;19.160;2024-01-15T07:25:57;98864.63;;;-2.96;78.11
61436;BME280;47304;47.456;19.160;2024-01-15T07:28:25;98867.98;;;-2.93;78.00
61436;BME280;47304;47.456;19.160;2024-01-15T07:30:56;98875.89;;;-2.92;77.87
61436;BME280;47304;47.456;19.160;2024-01-15T07:33:25;98878.34;;;-2.91;77.84
61436;BME280;47304;47.456;19.160;2024-01-15T07:35:53;98873.58;;;-2.89;77.76
61436;BME280;47304;47.456;19.160;2024-01-15T07:38:21;98871.29;;;-2.86;77.80
61436;BME280;47304;47.456;19.160;2024-01-15T07:40:49;98868.02;;;-2.80;77.77
61436;BME280;47304;47.456;19.160;2024-01-15T07:43:17;98870.84;;;-2.77;77.71
61436;BME280;47304;47.456;19.160;2024-01-15T07:45:45;98872.19;;;-2.72;77.62
61436;BME280;47304;47.456;19.160;2024-01-15T07:48:14;98871.29;;;-2.68;77.62
61436;BME280;47304;47.456;19.160;2024-01-15T07:50:42;98870.71;;;-2.63;77.44
61436;BME280;47304;47.456;19.160;2024-01-15T07:53:10;98877.84;;;-2.60;77.25
61436;BME280;47304;47.456;19.160;2024-01-15T07:55:39;98885.10;;;-2.58;77.02
61436;BME280;47304;47.456;19.160;2024-01-15T07:58:07;98893.37;;;-2.57;76.98
61436;BME280;47304;47.456;19.160;2024-01-15T08:00:35;98891.53;;;-2.55;76.74
61436;BME280;47304;47.456;19.160;2024-01-15T08:03:04;98888.73;;;-2.57;76.48
61436;BME280;47304;47.456;19.160;2024-01-15T08:05:33;98883.25;;;-2.57;76.75
61436;BME280;47304;47.456;19.160;2024-01-15T08:08:01;98878.75;;;-2.58;76.65
61436;BME280;47304;47.456;19.160;2024-01-15T08:10:30;98881.80;;;-2.54;76.96
61436;BME280;47304;47.456;19.160;2024-01-15T08:12:58;98876.96;;;-2.43;77.13
61436;BME280;47304;47.456;19.160;2024-01-15T08:15:26;98875.67;;;-2.33;77.15
61436;BME280;47304;47.456;19.160;2024-01-15T08:17:55;98884.31;;;-2.24;77.18
61436;BME280;47304;47.456;19.160;2024-01-15T08:20:23;98893.89;;;-2.12;77.21
61436;BME280;47304;47.456;19.160;2024-01-15T08:22:51;98900.16;;;-1.96;77.44
61436;BME280;47304;47.456;19.160;2024-01-15T08:25:20;98904.94;;;-1.84;77.15
61436;BME280;47304;47.456;19.160;2024-01-15T08:27:48;98904.49;;;-1.67;77.29
61436;BME280;47304;47.456;19.160;2024-01-15T08:30:17;98914.83;;;-1.52;76.85
61436;BME280;47304;47.456;19.160;2024-01-15T08:32:45;98898.68;;;-1.37;76.55
61436;BME280;47304;47.456;19.160;2024-01-15T08:35:13;98915.96;;;-1.26;76.46
61436;BME280;47304;47.456;19.160;2024-01-15T08:37:41;98907.44;;;-1.09;76.42
61436;BME280;47304;47.456;19.160;2024-01-15T08:40:11;98902.41;;;-0.95;75.97
61436;BME280;47304;47.456;19.160;2024-01-15T08:42:39;98903.69;;;-0.76;76.03
61436;BME280;47304;47.456;19.160;2024-01-15T08:45:08;98900.96;;;-0.58;75.33
61436;BME280;47304;47.456;19.160;2024-01-15T08:47:37;98893.93;;;-0.40;75.15
61436;BME280;47304;47.456;19.160;2024-01-15T08:50:06;98896.50;;;-0.13;75.20
61436;BME280;47304;47.456;19.160;2024-01-15T08:52:35;98895.58;;;0.21;75.21
61436;BME280;47304;47.456;19.160;2024-01-15T08:55:03;98891.89;;;0.69;74.90
61436;BME280;47304;47.456;19.160;2024-01-15T08:57:32;98892.56;;;1.41;73.89
61436;BME280;47304;47.456;19.160;2024-01-15T09:00:00;98895.41;;;2.10;71.85
61436;BME280;47304;47.456;19.160;2024-01-15T09:02:28;98895.58;;;2.66;70.20
61436;BME280;47304;47.456;19.160;2024-01-15T09:04:56;98891.42;;;3.21;67.78
61436;BME280;47304;47.456;19.160;2024-01-15T09:07:24;98894.56;;;4.48;66.13
61436;BME280;47304;47.456;19.160;2024-01-15T09:09:53;98890.73;;;6.30;64.02
61436;BME280;47304;47.456;19.160;2024-01-15T09:12:21;98892.92;;;7.70;59.63
61436;BME280;47304;47.456;19.160;2024-01-15T09:14:49;98885.40;;;9.30;57.52
61436;BME280;47304;47.456;19.160;2024-01-15T09:17:17;98881.61;;;10.88;54.82
61436;BME280;47304;47.456;19.160;2024-01-15T09:19:46;98881.80;;;11.92;50.77
61436;BME280;47304;47.456;19.160;2024-01-15T09:22:15;98872.30;;;12.50;48.28
61436;BME280;47304;47.456;19.160;2024-01-15T09:24:43;98862.27;;;13.78;46.99
61436;BME280;47304;47.456;19.160;2024-01-15T09:27:11;98857.23;;;14.72;44.35
61436;BME280;47304;47.456;19.160;2024-01-15T09:29:39;98852.80;;;15.26;41.18
61436;BME280;47304;47.456;19.160;2024-01-15T09:32:08;98846.52;;;15.21;39.99
61436;BME280;47304;47.456;19.160;2024-01-15T09:34:36;98848.89;;;15.44;37.77
61436;BME280;47304;47.456;19.160;2024-01-15T09:37:04;98847.65;;;15.59;36.14
61436;BME280;47304;47.456;19.160;2024-01-15T09:39:33;98841.14;;;16.24;35.36
61436;BME280;47304;47.456;19.160;2024-01-15T09:42:01;98831.07;;;17.47;33.20
61436;BME280;47304;47.456;19.160;2024-01-15T09:44:30;98827.72;;;18.79;30.87
61436;BME280;47304;47.456;19.160;2024-01-15T09:46:59;98822.75;;;19.65;29.06
61436;BME280;47304;47.456;19.160;2024-01-15T09:49:27;98813.04;;;20.58;29.27
61436;BME280;47304;47.456;19.160;2024-01-15T09:51:58;98802.25;;;21.83;27.51
61436;BME280;47304;47.456;19.160;2024-01-15T09:54:27;98795.95;;;22.65;25.85
61436;BME280;47304;47.456;19.160;2024-01-15T09:56:55;98791.19;;;23.18;24.95
61436;BME280;47304;47.456;19.160;2024-01-15T09:59:25;98792.76;;;23.80;25.06
61436;BME280;47304;47.456;19.160;2024-01-15T10:01:54;98785.02;;;24.90;24.62
61436;BME280;47304;47.456;19.160;2024-01-15T10:04:23;98784.33;;;25.83;23.88
61436;BME280;47304;47.456;19.160;2024-01-15T10:06:52;98782.27;;;26.39;22.37
61436;BME280;47304;47.456;19.160;2024-01-15T10:09:22;98783.95;;;26.10;21.36
61436;BME280;47304;47.456;19.160;2024-01-15T10:11:50;98782.82;;;25.18;21.27
61436;BME280;47304;47.456;19.160;2024-01-15T10:14:19;98783.13;;;23.75;21.53
61436;BME280;47304;47.456;19.160;2024-01-15T10:16:47;98783.79;;;21.07;22.64
61436;BME280;47304;47.456;19.160;2024-01-15T10:19:15;98788.97;;;18.45;24.29
61436;BME280;47304;47.456;19.160;2024-01-15T10:21:43;98787.30;;;16.30;25.38
61436;BME280;47304;47.456;19.160;2024-01-15T10:24:13;98789.64;;;14.43;26.76
61436;BME280;47304;47.456;19.160;2024-01-15T10:26:42;98787.31;;;13.01;28.39
61436;BME280;47304;47.456;19.160;2024-01-15T10:29:10;98787.16;;;11.94;29.80
61436;BME280;47304;47.456;19.160;2024-01-15T10:31:39;98784.41;;;11.13;30.83
61436;BME280;47304;47.456;19.160;2024-01-15T10:34:13;98777.88;;;10.70;31.56
61436;BME280;47304;47.456;19.160;2024-01-15T10:36:42;98769.84;;;10.57;32.40
61436;BME280;47304;47.456;19.160;2024-01-15T10:39:14;98768.55;;;11.28;32.32
61436;BME280;47304;47.456;19.160;2024-01-15T10:41:43;98754.88;;;12.78;30.59
61436;BME280;47304;47.456;19.160;2024-01-15T10:44:11;98748.19;;;14.10;29.95
61436;BME280;47304;47.456;19.160;2024-01-15T10:46:40;98740.23;;;16.02;28.04
61436;BME280;47304;47.456;19.160;2024-01-15T10:49:09;98741.69;;;18.42;25.83
61436;BME280;47304;47.456;19.160;2024-01-15T10:51:38;98740.16;;;20.49;24.11
61436;BME280;47304;47.456;19.160;2024-01-15T10:54:06;98738.89;;;22.11;22.21
61436;BME280;47304;47.456;19.160;2024-01-15T10:56:36;98740.52;;;23.06;21.62
61436;BME280;47304;47.456;19.160;2024-01-15T10:59:05;98738.68;;;24.55;20.89
61436;BME280;47304;47.456;19.160;2024-01-15T11:01:33;98737.23;;;25.25;18.91
61436;BME280;47304;47.456;19.160;2024-01-15T11:04:02;98737.14;;;25.61;19.57
61436;BME280;47304;47.456;19.160;2024-01-15T11:06:42;98736.80;;;26.70;18.63
61436;BME280;47304;47.456;19.160;2024-01-15T11:09:11;98724.23;;;27.07;18.33
61436;BME280;47304;47.456;19.160;2024-01-15T11:11:43;98730.09;;;27.75;18.28
61436;BME280;47304;47.456;19.160;2024-01-15T11:14:11;98733.56;;;28.28;17.26
61436;BME280;47304;47.456;19.160;2024-01-15T11:16:59;98733.42;;;28.26;17.14
61436;BME280;47304;47.456;19.160;2024-01-15T11:19:36;98730.84;;;28.47;16.85
61436;BME280;47304;47.456;19.160;2024-01-15T11:22:06;98732.00;;;28.94;16.35
61436;BME280;47304;47.456;19.160;2024-01-15T11:24:39;98728.81;;;29.30;15.94
61436;BME280;47304;47.456;19.160;2024-01-15T11:27:08;98729.00;;;29.18;15.51
61436;BME280;47304;47.456;19.160;2024-01-15T11:29:37;98730.58;;;27.56;16.07
61436;BME280;47304;47.456;19.160;2024-01-15T11:32:06;98717.65;;;25.17;17.11
61436;BME280;47304;47.456;19.160;2024-01-15T11:34:55;98715.02;;;23.29;18.45
61436;BME280;47304;47.456;19.160;2024-01-15T11:37:23;98716.31;;;21.55;19.86
61436;BME280;47304;47.456;19.160;2024-01-15T11:39:53;98717.42;;;20.08;21.03
61436;BME280;47304;47.456;19.160;2024-01-15T11:42:22;98724.63;;;18.70;22.33
61436;BME280;47304;47.456;19.160;2024-01-15T11:44:50;98712.92;;;18.94;22.81
61436;BME280;47304;47.456;19.160;2024-01-15T11:47:38;98706.10;;;19.59;22.16
61436;BME280;47304;47.456;19.160;2024-01-15T11:50:17;98713.89;;;19.84;22.17
61436;BME280;47304;47.456;19.160;2024-01-15T11:52:51;98711.40;;;21.19;21.42
61436;BME280;47304;47.456;19.160;2024-01-15T11:55:29;98714.41;;;22.57;20.63
61436;BME280;47304;47.456;19.160;2024-01-15T11:58:00;98706.50;;;23.96;20.05
61436;BME280;47304;47.456;19.160;2024-01-15T12:00:29;98687.94;;;25.28;19.08
61436;BME280;47304;47.456;19.160;2024-01-15T12:02:59;98675.50;;;26.17;18.73
61436;BME280;47304;47.456;19.160;2024-01-15T12:05:27;98672.73;;;26.89;17.59
61436;BME280;47304;47.456;19.160;2024-01-15T12:07:56;98678.83;;;27.29;17.18
61436;BME280;47304;47.456;19.160;2024-01-15T12:10:24;98680.70;;;27.95;16.95
61436;BME280;47304;47.456;19.160;2024-01-15T12:13:10;98680.81;;;27.99;16.05
61436;BME280;47304;47.456;19.160;2024-01-15T12:15:39;98681.83;;;27.96;16.49
61436;BME280;47304;47.456;19.160;2024-01-15T12:18:09;98680.58;;;28.02;15.89
61436;BME280;47304;47.456;19.160;2024-01-15T12:20:39;98680.84;;;27.88;15.86
61436;BME280;47304;47.456;19.160;2024-01-15T12:23:07;98669.98;;;27.44;16.16
61436;BME280;47304;47.456;19.160;2024-01-15T12:25:35;98665.36;;;27.16;16.14
61436;BME280;47304;47.456;19.160;2024-01-15T12:28:05;98662.86;;;25.90;16.34
61436;BME280;47304;47.456;19.160;2024-01-15T12:30:34;98658.10;;;24.36;17.11
61436;BME280;47304;47.456;19.160;2024-01-15T12:33:04;98658.48;;;22.14;18.21
61436;BME280;47304;47.456;19.160;2024-01-15T12:35:33;98660.19;;;20.19;20.03
61436;BME280;47304;47.456;19.160;2024-01-15T12:38:02;98665.65;;;18.50;21.34
61436;BME280;47304;47.456;19.160;2024-01-15T12:40:32;98654.20;;;16.96;22.72
61436;BME280;47304;47.456;19.160;2024-01-15T12:43:00;98655.10;;;15.85;24.12
61436;BME280;47304;47.456;19.160;2024-01-15T12:45:28;98658.19;;;14.85;25.04
61436;BME280;47304;47.456;19.160;2024-01-15T12:47:58;98664.23;;;13.88;26.14
61436;BME280;47304;47.456;19.160;2024-01-15T12:50:26;98660.67;;;13.08;27.26
61436;BME280;47304;47.456;19.160;2024-01-15T12:52:54;98665.93;;;12.35;28.14
61436;BME280;47304;47.456;19.160;2024-01-15T12:55:23;98664.77;;;11.69;29.15
61436;BME280;47304;47.456;19.160;2024-01-15T12:57:51;98671.37;;;10.96;29.99